Terminal Aerodrome Forecast
Issued by NWS

Home | Current Version | Previous Version | Text Only | Print | Product List | Glossary On
Versions: 1 2 3 4 5 6 7 8 9 10 11 12 13 14 15
000
FTUS45 KRIW 251700
TAFJAC
TAF
KJAC 251721Z 2518/2618 VRB04KT P6SM BKN013
      TEMPO 2519/2520 SCT013 BKN040
     FM252000 VRB05KT P6SM BKN040
     FM260300 36006KT P6SM SCT040
     FM261000 35006KT P6SM VCFG SCT003
     FM261700 VRB05KT P6SM SKC
      AMD LTD TO CLD VIS AND WIND=

USA.gov is the U.S. government's official web portal to all federal, state and local government web resources and services.